createdAt,value
2019-03-25T00:00:54.691Z,11.97
2019-03-25T00:03:23.124Z,15.23
2019-03-25T00:05:51.647Z,14.23
2019-03-25T00:08:20.086Z,13.10
2019-03-25T00:10:48.683Z,11.80
2019-03-25T00:13:17.106Z,10.10
2019-03-25T00:15:45.571Z,11.13
2019-03-25T00:18:13.996Z,18.00
2019-03-25T00:20:42.440Z,13.23
2019-03-25T00:23:10.896Z,12.70
2019-03-25T00:25:39.328Z,11.53
2019-03-25T00:28:07.776Z,10.67
2019-03-25T00:30:36.265Z,12.60
2019-03-25T00:33:04.783Z,14.97
2019-03-25T00:35:33.215Z,15.63
2019-03-25T00:38:01.659Z,16.27
2019-03-25T00:40:30.093Z,15.53
2019-03-25T00:42:58.548Z,11.83
2019-03-25T00:45:26.976Z,14.33
2019-03-25T00:47:55.410Z,12.40
2019-03-25T00:50:23.840Z,13.53
2019-03-25T00:52:52.308Z,13.67
2019-03-25T00:55:20.723Z,13.33
2019-03-25T00:57:49.185Z,14.13
2019-03-25T01:00:18.040Z,11.07
2019-03-25T01:02:46.599Z,12.90
2019-03-25T01:05:15.313Z,10.67
2019-03-25T01:07:43.845Z,13.50
2019-03-25T01:10:12.512Z,12.27
2019-03-25T01:12:40.953Z,10.47
2019-03-25T01:15:09.560Z,13.97
2019-03-25T01:17:38.008Z,11.13
2019-03-25T01:20:08.011Z,13.67
2019-03-25T01:22:36.486Z,11.97
2019-03-25T01:25:06.787Z,10.67
2019-03-25T01:27:35.244Z,14.83
2019-03-25T01:30:05.823Z,9.97
2019-03-25T01:32:34.281Z,16.47
2019-03-25T01:35:02.718Z,14.07
2019-03-25T01:37:31.133Z,14.17
2019-03-25T01:39:59.575Z,11.73
2019-03-25T01:42:28.019Z,15.33
2019-03-25T01:44:56.455Z,10.47
2019-03-25T01:47:24.887Z,13.63
2019-03-25T01:49:53.333Z,13.83
2019-03-25T01:52:21.755Z,17.10
2019-03-25T01:54:50.222Z,10.97
2019-03-25T01:57:18.652Z,12.67
2019-03-25T01:59:47.104Z,15.83
2019-03-25T02:02:15.599Z,14.07
2019-03-25T02:04:44.043Z,13.10
2019-03-25T02:07:12.639Z,14.53
2019-03-25T02:09:41.106Z,14.33
2019-03-25T02:12:09.607Z,8.93
2019-03-25T02:14:38.055Z,17.87
2019-03-25T02:17:06.558Z,11.03
2019-03-25T02:19:34.979Z,10.47
2019-03-25T02:22:03.432Z,16.50
2019-03-25T02:24:31.903Z,13.63
2019-03-25T02:27:00.394Z,10.83
2019-03-25T02:29:28.820Z,13.93
2019-03-25T02:31:57.278Z,16.27
2019-03-25T02:34:25.715Z,14.80
2019-03-25T02:36:54.172Z,15.40
2019-03-25T02:39:22.605Z,14.30
2019-03-25T02:41:51.124Z,15.70
2019-03-25T02:44:19.553Z,10.37
2019-03-25T02:46:48.081Z,11.67
2019-03-25T02:49:16.502Z,13.70
2019-03-25T02:51:44.971Z,10.67
2019-03-25T02:54:13.464Z,16.33
2019-03-25T02:56:41.920Z,14.57
2019-03-25T02:59:10.355Z,17.37
2019-03-25T03:01:38.888Z,10.80
2019-03-25T03:04:07.315Z,14.97
2019-03-25T03:06:35.787Z,16.97
2019-03-25T03:09:06.588Z,15.20
2019-03-25T03:11:35.034Z,14.13
2019-03-25T03:14:03.475Z,11.47
2019-03-25T03:16:31.921Z,12.30
2019-03-25T03:19:00.347Z,12.27
2019-03-25T03:21:28.807Z,16.17
2019-03-25T03:23:57.225Z,11.83
2019-03-25T03:26:25.756Z,12.33
2019-03-25T03:28:54.285Z,12.67
2019-03-25T03:31:22.718Z,12.20
2019-03-25T03:33:51.193Z,12.10
2019-03-25T03:36:19.616Z,12.67
2019-03-25T03:38:48.165Z,12.23
2019-03-25T03:41:16.670Z,13.17
2019-03-25T03:43:45.184Z,11.23
2019-03-25T03:46:13.618Z,14.07
2019-03-25T03:48:42.058Z,11.67
2019-03-25T03:51:10.663Z,15.13
2019-03-25T03:53:39.379Z,12.63
2019-03-25T03:56:13.256Z,8.63
2019-03-25T03:58:39.240Z,13.07
2019-03-25T04:01:07.736Z,11.10
2019-03-25T04:03:36.182Z,14.67
2019-03-25T04:06:04.603Z,9.80
2019-03-25T04:08:33.069Z,11.83
2019-03-25T04:11:01.491Z,12.93
2019-03-25T04:13:29.941Z,11.83
2019-03-25T04:16:01.177Z,12.53
2019-03-25T04:18:28.595Z,13.77
2019-03-25T04:20:57.047Z,11.37
2019-03-25T04:23:25.541Z,13.90
2019-03-25T04:25:54.151Z,13.03
2019-03-25T04:28:22.574Z,13.90
2019-03-25T04:30:51.090Z,14.73
2019-03-25T04:33:19.583Z,16.27
2019-03-25T04:35:48.039Z,17.00
2019-03-25T04:38:16.465Z,12.47
2019-03-25T04:40:44.924Z,14.73
2019-03-25T04:43:13.348Z,15.23
2019-03-25T04:45:41.815Z,13.67
2019-03-25T04:48:10.227Z,16.33
2019-03-25T04:50:38.679Z,14.23
2019-03-25T04:53:07.104Z,14.37
2019-03-25T04:55:35.572Z,13.90
2019-03-25T04:58:04.142Z,14.43
2019-03-25T05:00:34.724Z,12.50
2019-03-25T05:03:03.254Z,15.07
2019-03-25T05:05:31.755Z,12.43
2019-03-25T05:08:00.187Z,15.13
2019-03-25T05:10:28.634Z,13.27
2019-03-25T05:12:57.070Z,15.77
2019-03-25T05:15:25.517Z,20.10
2019-03-25T05:17:53.947Z,13.13
2019-03-25T05:20:22.399Z,15.63
2019-03-25T05:22:50.843Z,10.77
2019-03-25T05:25:19.287Z,12.17
2019-03-25T05:27:47.803Z,12.40
2019-03-25T05:30:16.328Z,10.10
2019-03-25T05:32:44.768Z,10.23
2019-03-25T05:35:13.207Z,10.67
2019-03-25T05:37:41.655Z,8.80
2019-03-25T05:40:10.527Z,6.90
2019-03-25T05:42:38.971Z,9.53
2019-03-25T05:45:07.836Z,7.57
2019-03-25T05:47:36.293Z,8.17
2019-03-25T05:50:09.498Z,10.13
2019-03-25T05:52:38.007Z,8.20
2019-03-25T05:55:07.873Z,5.20
2019-03-25T05:57:36.332Z,8.57
2019-03-25T06:00:05.886Z,7.47
2019-03-25T06:02:34.541Z,7.33
2019-03-25T06:05:03.149Z,5.40
2019-03-25T06:07:31.597Z,7.83
2019-03-25T06:10:00.026Z,8.60
2019-03-25T06:12:28.483Z,8.57
2019-03-25T06:14:56.921Z,10.90
2019-03-25T06:17:25.356Z,8.77
2019-03-25T06:19:53.810Z,8.20
2019-03-25T06:22:22.239Z,10.57
2019-03-25T06:24:50.683Z,10.07
2019-03-25T06:27:19.128Z,10.10
2019-03-25T06:29:47.599Z,14.07
2019-03-25T06:32:16.023Z,11.53
2019-03-25T06:34:44.479Z,12.47
2019-03-25T06:37:12.930Z,15.47
2019-03-25T06:39:41.373Z,15.87
2019-03-25T06:42:09.796Z,13.20
2019-03-25T06:44:38.402Z,18.70
2019-03-25T06:47:06.888Z,16.90
2019-03-25T06:49:35.344Z,20.47
2019-03-25T06:52:03.952Z,16.00
2019-03-25T06:54:32.403Z,17.03
2019-03-25T06:57:00.827Z,12.93
2019-03-25T06:59:29.281Z,15.77
2019-03-25T07:01:57.710Z,12.20
2019-03-25T07:04:26.140Z,16.00
2019-03-25T07:06:54.590Z,14.53
2019-03-25T07:09:23.039Z,12.70
2019-03-25T07:11:51.487Z,15.63
2019-03-25T07:14:20.220Z,15.03
2019-03-25T07:16:48.671Z,15.73
2019-03-25T07:19:17.096Z,15.10
2019-03-25T07:21:45.574Z,17.70
2019-03-25T07:24:14.064Z,11.77
2019-03-25T07:26:42.528Z,14.07
2019-03-25T07:29:10.948Z,14.77
2019-03-25T07:31:39.550Z,18.63
2019-03-25T07:34:07.991Z,15.60
2019-03-25T07:36:36.518Z,13.93
2019-03-25T07:39:06.590Z,18.30
2019-03-25T07:41:34.724Z,15.23
2019-03-25T07:44:03.301Z,19.50
2019-03-25T07:46:31.763Z,14.03
2019-03-25T07:49:00.194Z,17.43
2019-03-25T07:51:28.647Z,23.40
2019-03-25T07:53:57.118Z,17.57
2019-03-25T07:56:25.613Z,20.07
2019-03-25T07:58:54.057Z,18.87
2019-03-25T08:04:51.699Z,18.53
2019-03-25T08:07:20.205Z,17.57
2019-03-25T08:09:48.787Z,21.77
2019-03-25T08:12:17.281Z,18.83
2019-03-25T08:14:45.770Z,16.53
2019-03-25T08:17:14.387Z,24.33
2019-03-25T08:19:42.952Z,16.90
2019-03-25T08:22:11.448Z,22.67
2019-03-25T08:24:39.899Z,18.63
2019-03-25T08:27:08.394Z,16.23
2019-03-25T08:29:36.847Z,19.77
2019-03-25T08:32:05.284Z,18.60
2019-03-25T08:34:33.737Z,17.60
2019-03-25T08:37:04.324Z,12.47
2019-03-25T08:39:32.335Z,17.67
2019-03-25T08:42:00.763Z,20.30
2019-03-25T08:44:29.224Z,16.00
2019-03-25T08:46:57.661Z,16.13
2019-03-25T08:49:26.188Z,15.67
2019-03-25T08:51:54.619Z,13.83
2019-03-25T08:54:23.193Z,13.97
2019-03-25T08:56:51.615Z,13.80
2019-03-25T08:59:20.123Z,15.67
2019-03-25T09:01:48.566Z,16.73
2019-03-25T09:04:17.018Z,18.00
2019-03-25T09:06:47.843Z,13.57
2019-03-25T09:09:15.627Z,12.33
2019-03-25T09:11:44.061Z,12.43
2019-03-25T09:14:12.512Z,14.57
2019-03-25T09:16:41.018Z,15.17
2019-03-25T09:19:09.555Z,10.93
2019-03-25T09:21:38.351Z,14.57
2019-03-25T09:24:06.875Z,15.40
2019-03-25T09:26:35.402Z,11.43
2019-03-25T09:29:03.891Z,13.97
2019-03-25T09:31:36.982Z,12.93
2019-03-25T09:34:02.502Z,14.67
2019-03-25T09:36:30.983Z,16.50
2019-03-25T09:38:59.446Z,13.33
2019-03-25T09:41:28.001Z,11.33
2019-03-25T09:43:56.427Z,11.63
2019-03-25T09:46:24.870Z,10.23
2019-03-25T09:48:53.483Z,7.43
2019-03-25T09:51:21.930Z,7.13
2019-03-25T09:53:50.423Z,8.13
2019-03-25T09:56:19.067Z,5.87
2019-03-25T09:58:47.565Z,9.50
2019-03-25T10:01:16.147Z,10.70
2019-03-25T10:03:44.749Z,10.27
2019-03-25T10:06:13.286Z,10.63
2019-03-25T10:08:41.771Z,12.67
2019-03-25T10:11:10.364Z,12.90
2019-03-25T10:13:38.867Z,11.33
2019-03-25T10:16:07.388Z,9.53
2019-03-25T10:18:35.825Z,11.37
2019-03-25T10:21:04.351Z,12.63
2019-03-25T10:23:32.882Z,9.93
2019-03-25T10:26:01.305Z,11.27
2019-03-25T10:28:29.770Z,9.30
2019-03-25T10:30:58.359Z,13.30
2019-03-25T10:33:26.804Z,9.07
2019-03-25T10:35:55.445Z,10.20
2019-03-25T10:38:23.898Z,9.00
2019-03-25T10:40:52.421Z,10.00
2019-03-25T10:43:20.879Z,10.80
2019-03-25T10:45:49.393Z,12.53
2019-03-25T10:48:17.941Z,10.67
2019-03-25T10:50:46.457Z,5.90
2019-03-25T10:53:14.917Z,7.00
2019-03-25T10:55:43.339Z,7.23
2019-03-25T10:58:11.821Z,6.57
2019-03-25T11:00:40.487Z,11.07
2019-03-25T11:03:08.941Z,5.70
2019-03-25T11:05:37.399Z,5.23
2019-03-25T11:08:05.904Z,8.63
2019-03-25T11:10:34.388Z,7.07
2019-03-25T11:13:03.085Z,11.03
2019-03-25T11:15:31.565Z,10.87
2019-03-25T11:18:00.067Z,10.07
2019-03-25T11:20:28.502Z,8.07
2019-03-25T11:22:57.018Z,12.33
2019-03-25T11:25:25.462Z,10.90
2019-03-25T11:27:54.587Z,7.50
2019-03-25T11:30:47.588Z,9.90
2019-03-25T11:33:16.035Z,10.10
2019-03-25T11:35:44.502Z,10.00
2019-03-25T11:38:13.012Z,10.33
2019-03-25T11:40:41.539Z,9.80
2019-03-25T11:43:09.975Z,8.40
2019-03-25T11:45:38.503Z,6.30
2019-03-25T11:48:07.009Z,11.43
2019-03-25T11:50:35.486Z,10.23
2019-03-25T11:53:04.005Z,7.97
2019-03-25T11:55:32.441Z,9.30
2019-03-25T11:58:00.867Z,9.10
2019-03-25T12:00:29.618Z,8.70
2019-03-25T12:02:58.070Z,12.93
2019-03-25T12:05:26.527Z,15.50
2019-03-25T12:07:54.964Z,15.30
2019-03-25T12:10:23.512Z,10.07
2019-03-25T12:12:51.969Z,7.67
2019-03-25T12:15:20.580Z,22.80
2019-03-25T12:17:49.053Z,10.70
2019-03-25T12:20:36.840Z,10.67
2019-03-25T12:23:05.337Z,9.87
2019-03-25T12:25:33.848Z,11.30
2019-03-25T12:28:02.384Z,9.90
2019-03-25T12:30:30.807Z,12.43
2019-03-25T12:33:03.946Z,11.47
2019-03-25T12:35:29.439Z,12.23
2019-03-25T12:37:57.954Z,10.77
2019-03-25T12:40:26.533Z,11.90
2019-03-25T12:42:55.047Z,12.80
2019-03-25T12:45:23.483Z,12.33
2019-03-25T12:47:52.023Z,11.33
2019-03-25T12:50:20.594Z,13.07
2019-03-25T12:52:49.050Z,13.40
2019-03-25T12:55:17.466Z,6.97
2019-03-25T12:57:45.919Z,12.43
2019-03-25T13:00:14.876Z,11.93
2019-03-25T13:02:43.294Z,10.47
2019-03-25T13:05:12.011Z,11.37
2019-03-25T13:07:40.490Z,8.60
2019-03-25T13:10:09.371Z,5.37
2019-03-25T13:12:37.828Z,4.53
2019-03-25T13:15:08.302Z,4.77
2019-03-25T13:17:36.772Z,3.03
2019-03-25T13:20:08.353Z,3.53
2019-03-25T13:22:36.799Z,7.93
2019-03-25T13:25:05.956Z,6.90
2019-03-25T13:27:34.468Z,7.13
2019-03-25T13:30:03.189Z,7.50
2019-03-25T13:32:31.615Z,7.83
2019-03-25T13:35:00.093Z,6.87
2019-03-25T13:37:28.770Z,11.17
2019-03-25T13:39:57.249Z,10.30
2019-03-25T13:42:25.695Z,9.20
2019-03-25T13:44:57.436Z,8.70
2019-03-25T13:47:24.312Z,7.70
2019-03-25T13:49:52.763Z,8.60
2019-03-25T13:52:21.189Z,11.17
2019-03-25T13:54:49.631Z,9.83
2019-03-25T13:57:18.181Z,9.23
2019-03-25T13:59:46.707Z,10.70
2019-03-25T14:02:15.134Z,8.83
2019-03-25T14:04:43.587Z,6.73
2019-03-25T14:07:12.250Z,5.80
2019-03-25T14:09:40.700Z,8.50
2019-03-25T14:12:09.167Z,8.97
2019-03-25T14:14:37.619Z,7.13
2019-03-25T14:17:06.213Z,9.13
2019-03-25T14:19:34.634Z,9.23
2019-03-25T14:22:03.080Z,8.73
2019-03-25T14:24:31.511Z,11.70
2019-03-25T14:26:59.960Z,8.63
2019-03-25T14:29:28.407Z,10.57
2019-03-25T14:31:56.944Z,20.13
2019-03-25T14:34:25.385Z,12.07
2019-03-25T14:36:53.867Z,10.97
2019-03-25T14:39:22.572Z,15.40
2019-03-25T14:41:51.118Z,9.77
2019-03-25T14:44:19.548Z,14.87
2019-03-25T14:46:48.007Z,13.27
2019-03-25T14:49:16.449Z,14.67
2019-03-25T14:51:44.892Z,13.13
2019-03-25T14:54:13.328Z,16.53
2019-03-25T14:56:41.777Z,24.33
2019-03-25T14:59:10.324Z,9.37
2019-03-25T15:01:38.751Z,11.83
2019-03-25T15:04:07.359Z,15.73
2019-03-25T15:06:35.808Z,15.83
2019-03-25T15:09:06.861Z,10.83
2019-03-25T15:11:35.391Z,8.93
2019-03-25T15:14:04.007Z,12.17
2019-03-25T15:16:32.455Z,14.03
2019-03-25T15:19:00.974Z,11.33
2019-03-25T15:21:29.464Z,9.83
2019-03-25T15:23:57.955Z,13.03
2019-03-25T15:26:26.392Z,10.50
2019-03-25T15:28:54.856Z,12.07
2019-03-25T15:31:23.368Z,10.10
2019-03-25T15:33:51.885Z,11.30
2019-03-25T15:36:20.391Z,15.23
2019-03-25T15:38:48.924Z,16.20
2019-03-25T15:41:17.420Z,15.30
2019-03-25T15:43:45.939Z,13.30
2019-03-25T15:46:14.371Z,15.93
2019-03-25T15:48:42.824Z,13.73
2019-03-25T15:51:11.265Z,10.60
2019-03-25T15:53:39.712Z,17.27
2019-03-25T15:56:08.159Z,12.67
2019-03-25T15:58:36.658Z,11.90
2019-03-25T16:01:05.191Z,11.00
2019-03-25T16:03:33.609Z,12.40
2019-03-25T16:06:02.212Z,14.13
2019-03-25T16:08:30.643Z,12.33
2019-03-25T16:10:59.175Z,15.63
2019-03-25T16:13:27.712Z,13.77
2019-03-25T16:15:56.290Z,13.30
2019-03-25T16:18:35.960Z,19.50
2019-03-25T16:21:05.544Z,13.83
2019-03-25T16:23:34.059Z,13.73
2019-03-25T16:26:02.587Z,12.60
2019-03-25T16:28:31.195Z,11.33
2019-03-25T16:30:59.726Z,9.57
2019-03-25T16:33:28.147Z,13.23
2019-03-25T16:35:56.592Z,14.30
2019-03-25T16:38:25.141Z,13.53
2019-03-25T16:40:53.597Z,10.87
2019-03-25T16:43:22.103Z,13.00
2019-03-25T16:45:50.605Z,13.67
2019-03-25T16:48:19.162Z,11.13
2019-03-25T16:50:47.629Z,10.97
2019-03-25T16:53:16.150Z,19.33
2019-03-25T16:55:44.612Z,13.37
2019-03-25T16:58:13.043Z,13.50
2019-03-25T17:00:41.500Z,12.30
2019-03-25T17:03:09.942Z,13.63
2019-03-25T17:05:38.452Z,19.63
2019-03-25T17:08:06.966Z,14.47
2019-03-25T17:10:35.428Z,19.00
2019-03-25T17:13:03.887Z,18.20
2019-03-25T17:15:32.348Z,13.57
2019-03-25T17:18:00.811Z,17.87
2019-03-25T17:20:29.275Z,17.03
2019-03-25T17:22:57.773Z,20.27
2019-03-25T17:25:26.275Z,14.97
2019-03-25T17:27:54.768Z,18.77
2019-03-25T17:30:23.506Z,18.47
2019-03-25T17:32:51.973Z,20.77
2019-03-25T17:35:20.470Z,24.67
2019-03-25T17:37:49.088Z,22.30
2019-03-25T17:40:17.692Z,18.17
2019-03-25T17:42:46.180Z,18.17
2019-03-25T17:45:15.654Z,14.70
2019-03-25T17:47:44.151Z,18.23
2019-03-25T17:50:13.019Z,13.90
2019-03-25T17:52:41.485Z,15.50
2019-03-25T17:55:10.350Z,16.23
2019-03-25T17:57:38.811Z,19.50
2019-03-25T18:00:10.363Z,16.80
2019-03-25T18:02:38.904Z,16.17
2019-03-25T18:05:09.608Z,10.90
2019-03-25T18:07:38.128Z,13.97
2019-03-25T18:10:08.345Z,7.60
2019-03-25T18:12:39.088Z,9.43
2019-03-25T18:15:10.136Z,14.47
2019-03-25T18:17:38.946Z,8.77
2019-03-25T18:20:18.178Z,8.83
2019-03-25T18:22:39.752Z,11.37
2019-03-25T18:25:08.780Z,7.90
2019-03-25T18:27:37.229Z,8.77
2019-03-25T18:30:08.688Z,6.73
2019-03-25T18:32:37.139Z,11.07
2019-03-25T18:35:06.991Z,10.13
2019-03-25T18:37:35.575Z,10.07
2019-03-25T18:40:05.063Z,12.67
2019-03-25T18:42:33.528Z,8.07
2019-03-25T18:45:02.124Z,6.97
2019-03-25T18:47:30.629Z,7.57
2019-03-25T18:49:59.177Z,6.57
2019-03-25T18:52:27.708Z,8.00
2019-03-25T18:54:56.327Z,9.93
2019-03-25T18:57:24.751Z,8.27
2019-03-25T18:59:53.342Z,8.27
2019-03-25T19:02:21.852Z,13.87
2019-03-25T19:04:50.433Z,11.07
2019-03-25T19:07:19.074Z,12.83
2019-03-25T19:09:47.895Z,13.83
2019-03-25T19:12:16.336Z,12.37
2019-03-25T19:14:44.805Z,20.67
2019-03-25T19:17:13.491Z,15.70
2019-03-25T19:19:42.028Z,14.20
2019-03-25T19:22:12.647Z,16.27
2019-03-25T19:24:40.702Z,16.67
2019-03-25T19:27:09.283Z,12.90
2019-03-25T19:29:37.836Z,15.23
2019-03-25T19:32:07.172Z,17.17
2019-03-25T19:34:35.831Z,14.73
2019-03-25T19:37:04.338Z,11.90
2019-03-25T19:39:33.077Z,11.33
2019-03-25T19:42:01.579Z,10.57
2019-03-25T19:44:30.268Z,15.00
2019-03-25T19:46:58.773Z,12.70
2019-03-25T19:49:27.380Z,9.50
2019-03-25T19:51:55.885Z,11.53
2019-03-25T19:54:24.568Z,7.90
2019-03-25T19:56:53.176Z,14.13
2019-03-25T19:59:21.661Z,10.00
2019-03-25T20:01:50.192Z,13.90
2019-03-25T20:04:19.137Z,9.00
2019-03-25T20:06:47.721Z,16.10
2019-03-25T20:09:16.203Z,10.97
2019-03-25T20:11:44.756Z,9.63
2019-03-25T20:14:13.226Z,8.97
2019-03-25T20:16:41.740Z,12.03
2019-03-25T20:19:10.308Z,10.53
2019-03-25T20:21:38.863Z,12.90
2019-03-25T20:24:07.425Z,12.33
2019-03-25T20:26:35.887Z,11.97
2019-03-25T20:29:06.504Z,11.13
2019-03-25T20:31:34.586Z,12.40
2019-03-25T20:34:10.875Z,12.40
2019-03-25T20:36:33.403Z,13.07
2019-03-25T20:39:01.903Z,13.63
2019-03-25T20:41:30.417Z,14.37
2019-03-25T20:43:59.008Z,13.17
2019-03-25T20:46:27.489Z,13.80
2019-03-25T20:48:55.934Z,14.30
2019-03-25T20:51:24.405Z,12.53
2019-03-25T20:53:52.999Z,19.37
2019-03-25T20:56:21.559Z,13.73
2019-03-25T20:58:50.027Z,15.53
2019-03-25T21:01:18.493Z,13.90
2019-03-25T21:03:47.017Z,14.87
2019-03-25T21:06:15.540Z,16.47
2019-03-25T21:08:44.042Z,14.60
2019-03-25T21:11:12.638Z,17.23
2019-03-25T21:13:41.367Z,15.83
2019-03-25T21:16:10.103Z,14.63
2019-03-25T21:18:38.947Z,15.73
2019-03-25T21:21:07.634Z,15.37
2019-03-25T21:23:36.145Z,16.23
2019-03-25T21:26:04.869Z,10.97
2019-03-25T21:28:33.748Z,17.60
2019-03-25T21:31:02.202Z,15.87
2019-03-25T21:33:30.752Z,13.97
2019-03-25T21:35:59.328Z,16.50
2019-03-25T21:38:27.780Z,12.07
2019-03-25T21:40:56.365Z,15.13
2019-03-25T21:43:24.886Z,18.37
2019-03-25T21:45:53.371Z,14.20
2019-03-25T21:48:21.884Z,19.23
2019-03-25T21:50:50.409Z,16.17
2019-03-25T21:53:18.912Z,12.50
2019-03-25T21:55:47.535Z,13.93
2019-03-25T21:58:16.007Z,17.10
2019-03-25T22:00:44.620Z,17.33
2019-03-25T22:03:13.115Z,11.20
2019-03-25T22:05:41.630Z,13.17
2019-03-25T22:08:10.057Z,16.33
2019-03-25T22:10:38.524Z,15.67
2019-03-25T22:13:06.943Z,16.57
2019-03-25T22:15:35.379Z,17.07
2019-03-25T22:18:03.919Z,13.73
2019-03-25T22:20:32.420Z,17.87
2019-03-25T22:23:00.864Z,18.80
2019-03-25T22:25:29.300Z,18.57
2019-03-25T22:27:57.971Z,18.13
2019-03-25T22:30:26.467Z,12.93
2019-03-25T22:32:54.920Z,14.53
2019-03-25T22:35:23.335Z,15.17
2019-03-25T22:37:51.803Z,16.77
2019-03-25T22:40:20.241Z,15.03
2019-03-25T22:42:48.832Z,15.37
2019-03-25T22:45:20.379Z,15.30
2019-03-25T22:47:49.054Z,19.17
2019-03-25T22:50:28.875Z,16.00
2019-03-25T22:52:57.963Z,17.07
2019-03-25T22:55:26.836Z,19.00
2019-03-25T22:57:55.283Z,23.40
2019-03-25T23:00:25.798Z,14.67
2019-03-25T23:02:54.332Z,18.17
2019-03-25T23:05:22.775Z,15.40
2019-03-25T23:07:51.239Z,24.87
2019-03-25T23:10:19.737Z,13.70
2019-03-25T23:12:48.261Z,17.13
2019-03-25T23:15:16.724Z,18.43
2019-03-25T23:17:45.258Z,15.97
2019-03-25T23:20:13.836Z,20.33
2019-03-25T23:22:42.293Z,19.77
2019-03-25T23:25:10.979Z,19.73
2019-03-25T23:27:39.396Z,17.87
2019-03-25T23:30:08.403Z,18.30
2019-03-25T23:32:36.826Z,23.40
2019-03-25T23:35:06.243Z,18.23
2019-03-25T23:37:34.686Z,15.70
2019-03-25T23:40:04.417Z,14.83
2019-03-25T23:42:32.909Z,19.73
2019-03-25T23:45:01.383Z,17.93
2019-03-25T23:47:29.864Z,18.13
2019-03-25T23:49:59.227Z,18.50
2019-03-25T23:52:27.652Z,22.53
2019-03-25T23:54:56.119Z,15.37
2019-03-25T23:57:24.563Z,21.17
2019-03-25T23:59:53.021Z,21.70
